Time;durP1;ratioP1;P1;durP2;ratioP2;P2;SDS_P1;SDS_P2;PMS_P1;PMS_P2;Temp;Humidity;BMP_temperature;BMP_pressure;BME280_temperature;BME280_humidity;BME280_pressure;Samples;Min_cycle;Max_cycle;Signal;HPM_P1;HPM_P2
2022/03/07 00:00:38;;;;;;;7.13;5.77;;;2.50;81.80;;;;;;5032846;28;20867;-64
2022/03/07 00:03:05;;;;;;;7.07;5.67;;;2.40;81.80;;;;;;5032791;28;20217;-64
2022/03/07 00:05:32;;;;;;;8.23;6.07;;;2.40;82.10;;;;;;5033200;28;20214;-63
2022/03/07 00:07:58;;;;;;;8.60;6.80;;;2.40;82.20;;;;;;5032938;28;20629;-63
2022/03/07 00:10:26;;;;;;;6.07;5.47;;;2.40;81.90;;;;;;5032690;28;20214;-63
2022/03/07 00:12:54;;;;;;;6.07;5.37;;;2.30;82.10;;;;;;5033037;28;20206;-63
2022/03/07 00:15:20;;;;;;;7.43;5.90;;;2.30;82.30;;;;;;5033361;28;20222;-64
2022/03/07 00:17:47;;;;;;;8.73;6.87;;;2.30;82.30;;;;;;5032878;28;20206;-64
2022/03/07 00:20:15;;;;;;;8.27;5.63;;;2.30;82.40;;;;;;5032853;28;20214;-64
2022/03/07 00:22:41;;;;;;;6.77;5.33;;;2.30;82.60;;;;;;5032949;28;20225;-63
2022/03/07 00:25:09;;;;;;;8.17;6.07;;;2.20;82.60;;;;;;5033112;28;20284;-63
2022/03/07 00:27:37;;;;;;;7.17;5.53;;;2.20;82.70;;;;;;5033100;28;20213;-63
2022/03/07 00:30:05;;;;;;;6.27;5.23;;;2.30;82.70;;;;;;5032900;28;20231;-63
2022/03/07 00:32:32;;;;;;;7.50;6.07;;;2.30;82.80;;;;;;5032953;28;20562;-64
2022/03/07 00:34:59;;;;;;;7.47;5.93;;;2.30;82.90;;;;;;5032628;28;20206;-64
2022/03/07 00:37:25;;;;;;;7.27;5.70;;;2.30;82.70;;;;;;5032964;28;20209;-64
2022/03/07 00:39:52;;;;;;;7.20;5.73;;;2.20;82.70;;;;;;5032181;28;20233;-64
2022/03/07 00:42:19;;;;;;;8.23;5.67;;;2.20;82.70;;;;;;5032424;28;20214;-64
2022/03/07 00:44:47;;;;;;;7.83;5.67;;;2.20;82.70;;;;;;5034481;28;20210;-64
2022/03/07 00:47:13;;;;;;;7.33;5.70;;;2.20;82.90;;;;;;5036027;28;20225;-63
2022/03/07 00:49:40;;;;;;;6.57;5.70;;;2.10;82.90;;;;;;5035800;28;20230;-64
2022/03/07 00:52:07;;;;;;;8.37;5.67;;;2.10;83.10;;;;;;5035977;28;20210;-64
2022/03/07 00:54:34;;;;;;;6.60;5.40;;;2.10;83.10;;;;;;5036075;28;20214;-63
2022/03/07 00:57:01;;;;;;;8.03;5.50;;;2.10;83.20;;;;;;5035553;28;20772;-64
2022/03/07 00:59:28;;;;;;;9.50;5.37;;;2.00;83.00;;;;;;5035960;28;20239;-64
2022/03/07 01:01:56;;;;;;;7.70;5.43;;;2.00;82.40;;;;;;5035685;28;20229;-64
2022/03/07 01:04:22;;;;;;;6.30;5.67;;;1.90;81.90;;;;;;5035848;28;20670;-64
2022/03/07 01:06:49;;;;;;;5.90;5.30;;;1.90;82.00;;;;;;5035748;28;20229;-63
2022/03/07 01:09:16;;;;;;;8.53;5.83;;;2.00;81.80;;;;;;5036125;28;20223;-64
2022/03/07 01:11:43;;;;;;;7.53;6.13;;;2.00;81.50;;;;;;5036219;28;20217;-64
2022/03/07 01:14:10;;;;;;;6.27;5.30;;;2.00;81.10;;;;;;5035742;28;20209;-63
2022/03/07 01:16:36;;;;;;;7.30;5.10;;;1.90;80.70;;;;;;5036149;28;20237;-63
2022/03/07 01:19:04;;;;;;;7.47;5.37;;;1.80;81.10;;;;;;5036405;28;20701;-63
2022/03/07 01:21:31;;;;;;;6.67;5.40;;;1.80;81.20;;;;;;5035842;28;20644;-64
2022/03/07 01:23:58;;;;;;;6.47;5.00;;;1.70;81.30;;;;;;5036506;28;20217;-64
2022/03/07 01:26:24;;;;;;;8.33;5.70;;;1.60;81.30;;;;;;5036060;28;20199;-64
2022/03/07 01:28:51;;;;;;;6.67;5.30;;;1.60;81.50;;;;;;5036065;28;20238;-63
2022/03/07 01:31:18;;;;;;;6.13;5.20;;;1.50;81.70;;;;;;5035625;28;20214;-63
2022/03/07 01:33:45;;;;;;;7.13;5.80;;;1.50;81.80;;;;;;5035789;28;20238;-63
2022/03/07 01:36:13;;;;;;;7.40;5.50;;;1.40;81.80;;;;;;5035782;28;20303;-63
2022/03/07 01:38:39;;;;;;;6.00;5.40;;;1.40;81.80;;;;;;5035491;28;20226;-63
2022/03/07 01:41:06;;;;;;;8.50;5.53;;;1.40;82.00;;;;;;5035642;28;20210;-63
2022/03/07 01:43:33;;;;;;;7.13;5.60;;;1.30;82.20;;;;;;5036066;28;20206;-63
2022/03/07 01:46:00;;;;;;;7.23;5.63;;;1.20;82.50;;;;;;5036116;28;20206;-63
2022/03/07 01:48:26;;;;;;;6.50;5.30;;;1.10;82.90;;;;;;5035738;28;20229;-63
2022/03/07 01:50:53;;;;;;;8.50;6.10;;;1.00;83.30;;;;;;5035572;28;20214;-63
2022/03/07 01:53:23;;;;;;;7.13;6.13;;;0.90;83.60;;;;;;5035756;28;20238;-63
2022/03/07 01:55:50;;;;;;;8.00;5.97;;;0.90;83.80;;;;;;5034057;28;20226;-63
2022/03/07 01:58:17;;;;;;;7.63;6.00;;;0.80;83.70;;;;;;5035012;28;20714;-63
2022/03/07 02:00:44;;;;;;;6.67;5.73;;;0.80;83.80;;;;;;5035179;28;20210;-64
2022/03/07 02:03:10;;;;;;;7.93;6.30;;;0.80;83.80;;;;;;5035189;28;20236;-63
2022/03/07 02:05:37;;;;;;;7.93;6.10;;;0.70;83.90;;;;;;5035054;28;20206;-64
2022/03/07 02:08:04;;;;;;;8.27;6.30;;;0.60;83.90;;;;;;5035058;28;20289;-62
2022/03/07 02:10:32;;;;;;;7.40;6.60;;;0.70;84.10;;;;;;5035177;28;20203;-62
2022/03/07 02:12:59;;;;;;;6.57;5.87;;;0.70;84.10;;;;;;5035618;28;20215;-62
2022/03/07 02:15:26;;;;;;;7.80;6.50;;;0.70;84.10;;;;;;5035060;28;20552;-62
2022/03/07 02:17:52;;;;;;;7.97;6.30;;;0.70;84.00;;;;;;5035317;28;20233;-62
2022/03/07 02:20:19;;;;;;;7.03;6.33;;;0.60;83.60;;;;;;5034513;28;20214;-62
2022/03/07 02:22:47;;;;;;;7.77;6.50;;;0.50;83.60;;;;;;5034266;28;20213;-62
2022/03/07 02:25:14;;;;;;;8.83;6.87;;;0.50;83.60;;;;;;5034475;28;20256;-62
2022/03/07 02:27:41;;;;;;;8.50;7.13;;;0.40;83.60;;;;;;5034728;28;20670;-62
2022/03/07 02:30:09;;;;;;;7.60;6.30;;;0.30;83.70;;;;;;5034214;28;20238;-62
2022/03/07 02:32:36;;;;;;;7.43;6.57;;;0.30;83.50;;;;;;5034427;28;20225;-62
2022/03/07 02:35:03;;;;;;;8.43;7.10;;;0.30;83.50;;;;;;5034453;28;20214;-61
2022/03/07 02:37:30;;;;;;;8.30;7.40;;;0.30;83.60;;;;;;5034292;28;20555;-62
2022/03/07 02:39:58;;;;;;;8.80;7.40;;;0.20;83.50;;;;;;5034015;28;20651;-61
2022/03/07 02:42:25;;;;;;;9.10;6.90;;;0.20;83.60;;;;;;5034139;28;20202;-61
2022/03/07 02:44:52;;;;;;;9.33;7.37;;;0.20;83.90;;;;;;5034165;28;20210;-61
2022/03/07 02:47:18;;;;;;;8.97;7.27;;;0.10;84.20;;;;;;5035393;28;20206;-62
2022/03/07 02:49:45;;;;;;;9.23;7.77;;;0.10;84.20;;;;;;5034809;28;20288;-62
2022/03/07 02:52:12;;;;;;;9.90;7.60;;;0.20;84.30;;;;;;5034998;28;20264;-62
2022/03/07 02:54:39;;;;;;;9.47;8.10;;;0.20;84.10;;;;;;5035241;28;20210;-62
2022/03/07 02:57:07;;;;;;;8.50;7.13;;;0.20;84.30;;;;;;5034562;28;20666;-62
2022/03/07 02:59:34;;;;;;;9.23;7.23;;;0.20;84.30;;;;;;5035044;28;20494;-62
2022/03/07 03:02:01;;;;;;;9.83;8.07;;;0.10;84.50;;;;;;5034396;28;20213;-62
2022/03/07 03:04:28;;;;;;;11.50;8.23;;;0.10;84.90;;;;;;5034126;28;20217;-62
2022/03/07 03:06:54;;;;;;;8.97;7.50;;;0.20;84.90;;;;;;5033544;28;20221;-62
2022/03/07 03:09:21;;;;;;;8.57;7.00;;;0.20;84.80;;;;;;5034650;28;20226;-62
2022/03/07 03:11:48;;;;;;;9.77;7.13;;;0.30;84.70;;;;;;5033803;28;20210;-62
2022/03/07 03:14:16;;;;;;;9.83;7.90;;;0.30;84.40;;;;;;5034171;28;20260;-62
2022/03/07 03:16:42;;;;;;;9.07;7.67;;;0.20;84.30;;;;;;5034184;28;20237;-62
2022/03/07 03:19:09;;;;;;;10.40;8.17;;;0.30;84.30;;;;;;5034158;28;20230;-62
2022/03/07 03:21:36;;;;;;;8.60;7.17;;;0.30;84.10;;;;;;5033860;28;20697;-62
2022/03/07 03:24:02;;;;;;;9.47;7.43;;;0.30;84.10;;;;;;5034177;28;20356;-63
2022/03/07 03:26:29;;;;;;;8.63;7.20;;;0.40;84.30;;;;;;5034062;28;20209;-63
2022/03/07 03:28:56;;;;;;;9.40;7.47;;;0.40;84.20;;;;;;5033791;28;20824;-63
2022/03/07 03:31:24;;;;;;;13.13;7.57;;;0.40;84.10;;;;;;5033649;28;20213;-63
2022/03/07 03:33:53;;;;;;;10.33;7.87;;;0.50;84.40;;;;;;5034012;28;20213;-63
2022/03/07 03:36:19;;;;;;;11.53;8.00;;;0.50;84.40;;;;;;5034114;28;20652;-63
2022/03/07 03:38:46;;;;;;;9.30;7.23;;;0.50;84.60;;;;;;5033860;28;20233;-62
2022/03/07 03:41:13;;;;;;;10.00;8.57;;;0.60;84.90;;;;;;5033781;28;20572;-62
2022/03/07 03:43:40;;;;;;;10.20;8.27;;;0.40;85.00;;;;;;5033383;28;20248;-63
2022/03/07 03:46:06;;;;;;;10.00;8.07;;;0.40;85.10;;;;;;5033574;28;20210;-62
2022/03/07 03:48:34;;;;;;;9.53;8.30;;;0.40;85.10;;;;;;5032675;28;20288;-62
2022/03/07 03:51:01;;;;;;;10.27;8.07;;;0.40;85.20;;;;;;5032727;28;20206;-63
2022/03/07 03:53:28;;;;;;;10.13;8.30;;;0.40;85.20;;;;;;5032515;28;20206;-63
2022/03/07 03:55:55;;;;;;;10.70;8.30;;;0.40;85.50;;;;;;5033018;28;20206;-63
2022/03/07 03:58:21;;;;;;;9.60;8.13;;;0.40;85.80;;;;;;5032396;28;20706;-63
2022/03/07 04:00:48;;;;;;;9.97;8.50;;;0.30;86.10;;;;;;5032561;28;20635;-63
2022/03/07 04:03:15;;;;;;;10.83;8.57;;;0.30;86.20;;;;;;5032550;28;20264;-63
2022/03/07 04:05:43;;;;;;;11.07;8.63;;;0.30;86.30;;;;;;5033041;28;20289;-63
2022/03/07 04:08:09;;;;;;;10.80;8.50;;;0.30;86.60;;;;;;5032478;28;20230;-62
2022/03/07 04:10:36;;;;;;;11.37;8.93;;;0.30;86.80;;;;;;5032983;28;20206;-62
2022/03/07 04:13:03;;;;;;;12.17;9.10;;;0.30;87.00;;;;;;5032821;28;20271;-62
2022/03/07 04:15:30;;;;;;;10.77;8.50;;;0.30;87.30;;;;;;5032743;28;20213;-63
2022/03/07 04:17:56;;;;;;;10.77;9.33;;;0.20;87.60;;;;;;5033667;28;20230;-62
2022/03/07 04:20:23;;;;;;;11.00;9.20;;;0.20;87.80;;;;;;5037056;28;20240;-62
2022/03/07 04:22:52;;;;;;;12.33;9.87;;;0.20;87.90;;;;;;5036876;28;20259;-63
2022/03/07 04:25:19;;;;;;;11.10;9.13;;;0.20;88.00;;;;;;5037791;28;20669;-62
2022/03/07 04:27:46;;;;;;;12.93;9.17;;;0.30;88.20;;;;;;5039233;28;20579;-63
2022/03/07 04:30:12;;;;;;;11.10;8.57;;;0.20;88.10;;;;;;5037984;28;20222;-63
2022/03/07 04:32:40;;;;;;;11.80;9.13;;;0.30;88.60;;;;;;5036592;28;20214;-62
2022/03/07 04:35:10;;;;;;;11.57;9.03;;;0.20;88.90;;;;;;5036512;28;20210;-62
2022/03/07 04:37:39;;;;;;;12.77;9.33;;;0.20;89.10;;;;;;5036736;28;20230;-62
2022/03/07 04:40:10;;;;;;;11.40;9.37;;;0.20;89.50;;;;;;5037028;28;20234;-62
2022/03/07 04:42:37;;;;;;;14.70;9.47;;;0.10;89.90;;;;;;5040100;28;20202;-62
2022/03/07 04:45:04;;;;;;;11.23;9.00;;;0.10;90.10;;;;;;5037344;28;20240;-62
2022/03/07 04:47:30;;;;;;;13.13;9.50;;;0.10;90.20;;;;;;5035953;28;20203;-62
2022/03/07 04:49:57;;;;;;;11.30;9.17;;;0.00;90.40;;;;;;5035823;28;20226;-62
2022/03/07 04:52:24;;;;;;;12.20;9.67;;;0.00;90.50;;;;;;5035888;28;20202;-63
2022/03/07 04:54:51;;;;;;;12.93;9.27;;;0.10;90.50;;;;;;5035885;28;20209;-62
2022/03/07 04:57:19;;;;;;;12.33;9.23;;;0.10;90.50;;;;;;5035438;28;20226;-63
2022/03/07 04:59:45;;;;;;;12.43;9.30;;;0.10;90.60;;;;;;5035347;28;20234;-63
2022/03/07 05:02:13;;;;;;;14.07;8.87;;;0.10;90.70;;;;;;5035236;28;20206;-62
2022/03/07 05:04:39;;;;;;;10.40;8.20;;;0.10;90.70;;;;;;5035721;28;20206;-62
2022/03/07 05:07:06;;;;;;;11.77;8.10;;;0.10;90.70;;;;;;5035571;28;20206;-62
2022/03/07 05:09:33;;;;;;;11.70;8.00;;;0.10;90.80;;;;;;5036341;28;20229;-62
2022/03/07 05:12:00;;;;;;;10.00;7.33;;;0.00;90.80;;;;;;5036617;28;20272;-62
2022/03/07 05:14:28;;;;;;;9.33;7.33;;;0.10;90.80;;;;;;5036298;28;20203;-62
2022/03/07 05:16:55;;;;;;;10.07;7.30;;;0.10;90.80;;;;;;5035398;28;20637;-62
2022/03/07 05:19:23;;;;;;;8.67;7.07;;;0.20;90.70;;;;;;5034904;28;20226;-63
2022/03/07 05:21:50;;;;;;;9.93;7.27;;;0.10;90.60;;;;;;5034737;28;20210;-62
2022/03/07 05:24:17;;;;;;;9.77;7.20;;;0.10;90.60;;;;;;5035465;28;20210;-62
2022/03/07 05:26:43;;;;;;;8.30;6.93;;;0.10;90.90;;;;;;5035007;28;20492;-62
2022/03/07 05:29:10;;;;;;;9.77;7.27;;;0.10;90.50;;;;;;5034824;28;20277;-62
2022/03/07 05:31:38;;;;;;;11.23;7.37;;;0.10;90.40;;;;;;5035120;28;20732;-63
2022/03/07 05:34:05;;;;;;;9.70;7.87;;;0.10;90.50;;;;;;5035448;28;20213;-62
2022/03/07 05:36:32;;;;;;;9.60;6.23;;;0.00;90.30;;;;;;5036068;28;20482;-62
2022/03/07 05:38:59;;;;;;;8.57;6.53;;;0.10;90.30;;;;;;5035774;28;20230;-62
2022/03/07 05:41:25;;;;;;;7.87;6.60;;;0.10;90.30;;;;;;5036119;28;20244;-62
2022/03/07 05:43:52;;;;;;;10.83;7.33;;;0.10;90.20;;;;;;5036166;28;20206;-63
2022/03/07 05:46:19;;;;;;;8.67;6.60;;;0.10;90.20;;;;;;5036116;28;20284;-63
2022/03/07 05:48:47;;;;;;;7.83;6.60;;;0.00;90.20;;;;;;5035726;28;20218;-62
2022/03/07 05:51:15;;;;;;;9.73;6.57;;;0.10;90.30;;;;;;5035809;28;20218;-62
2022/03/07 05:53:42;;;;;;;9.13;6.83;;;0.10;90.20;;;;;;5036336;28;20232;-63
2022/03/07 05:56:09;;;;;;;9.53;6.30;;;0.20;90.20;;;;;;5034802;28;20217;-63
2022/03/07 05:58:36;;;;;;;8.63;6.63;;;0.20;90.20;;;;;;5048323;22;20238;-66
2022/03/07 06:01:02;;;;;;;8.30;6.43;;;0.30;90.10;;;;;;5033304;28;20268;-68
2022/03/07 06:03:29;;;;;;;10.00;6.90;;;0.40;90.10;;;;;;5033596;28;20207;-66
2022/03/07 06:05:57;;;;;;;10.03;6.70;;;0.40;90.00;;;;;;5033452;28;20692;-66
2022/03/07 06:08:24;;;;;;;10.40;6.27;;;0.40;90.00;;;;;;5033524;28;20612;-67
2022/03/07 06:10:50;;;;;;;8.77;6.60;;;0.50;89.70;;;;;;5033205;28;20210;-67
2022/03/07 06:13:19;;;;;;;8.77;6.30;;;0.60;89.90;;;;;;5033700;28;20218;-66
2022/03/07 06:15:46;;;;;;;12.03;6.57;;;0.70;89.90;;;;;;5033566;28;20207;-66
2022/03/07 06:18:14;;;;;;;9.07;6.27;;;0.70;89.90;;;;;;5033351;28;20694;-63
2022/03/07 06:20:40;;;;;;;7.33;5.90;;;0.70;89.90;;;;;;5033058;28;20214;-65
2022/03/07 06:23:09;;;;;;;10.67;6.30;;;0.70;89.80;;;;;;5033368;28;20206;-65
2022/03/07 06:25:35;;;;;;;7.80;5.90;;;0.80;89.90;;;;;;5033060;28;20656;-65
2022/03/07 06:28:03;;;;;;;6.30;5.43;;;0.80;89.60;;;;;;5033204;28;20689;-65
2022/03/07 06:30:29;;;;;;;9.00;6.77;;;0.90;89.60;;;;;;5033279;28;20230;-65
2022/03/07 06:32:56;;;;;;;11.10;5.97;;;1.00;89.50;;;;;;5033182;28;20202;-66
2022/03/07 06:35:23;;;;;;;11.53;6.33;;;1.10;89.50;;;;;;5033293;28;20213;-65
2022/03/07 06:37:51;;;;;;;11.20;5.87;;;1.20;89.10;;;;;;5032830;28;20221;-65
2022/03/07 06:40:20;;;;;;;11.80;6.60;;;1.30;88.70;;;;;;5033065;28;20230;-65
2022/03/07 06:42:48;;;;;;;9.67;6.03;;;1.30;88.70;;;;;;5032503;28;20297;-63
2022/03/07 06:45:16;;;;;;;9.00;6.07;;;1.50;88.70;;;;;;5032953;28;20213;-62
2022/03/07 06:47:43;;;;;;;10.53;7.13;;;1.90;88.00;;;;;;5032919;28;20206;-62
2022/03/07 06:50:10;;;;;;;9.60;5.63;;;2.40;89.00;;;;;;5032820;28;20268;-63
2022/03/07 06:52:37;;;;;;;9.17;6.40;;;2.90;86.10;;;;;;5032450;28;20260;-64
2022/03/07 06:55:05;;;;;;;7.90;5.57;;;3.70;83.90;;;;;;5032829;28;20264;-64
2022/03/07 06:57:33;;;;;;;10.87;6.67;;;4.60;82.40;;;;;;5032587;28;20284;-63
2022/03/07 06:59:59;;;;;;;7.57;5.70;;;5.50;80.00;;;;;;5032352;28;20245;-63
2022/03/07 07:02:26;;;;;;;8.30;5.30;;;6.10;77.40;;;;;;5032471;28;20636;-64
2022/03/07 07:04:54;;;;;;;8.00;6.03;;;6.50;75.70;;;;;;5032497;28;20210;-62
2022/03/07 07:07:20;;;;;;;8.03;5.53;;;6.90;74.50;;;;;;5032456;28;20212;-64
2022/03/07 07:09:47;;;;;;;7.17;5.03;;;7.30;73.50;;;;;;5032552;28;20222;-64
2022/03/07 07:12:14;;;;;;;12.17;5.87;;;7.40;73.30;;;;;;5032321;28;20289;-63
2022/03/07 07:14:42;;;;;;;7.63;5.53;;;7.70;72.60;;;;;;5032580;28;20253;-63
2022/03/07 07:17:09;;;;;;;8.43;4.90;;;8.30;71.10;;;;;;5031925;28;20214;-65
2022/03/07 07:19:35;;;;;;;9.60;5.43;;;8.80;69.50;;;;;;5032144;28;20775;-63
2022/03/07 07:22:02;;;;;;;6.07;5.43;;;9.00;68.40;;;;;;5032211;28;20272;-63
2022/03/07 07:24:29;;;;;;;6.33;5.43;;;8.90;68.10;;;;;;5032285;28;20230;-63
2022/03/07 07:26:55;;;;;;;7.37;5.87;;;8.70;67.80;;;;;;5032177;28;20268;-63
2022/03/07 07:29:22;;;;;;;9.97;5.63;;;8.60;68.20;;;;;;5032035;28;20222;-63
2022/03/07 07:31:52;;;;;;;9.13;6.17;;;8.40;68.40;;;;;;5031772;28;20297;-63
2022/03/07 07:34:19;;;;;;;6.50;5.73;;;8.30;68.90;;;;;;5032060;28;20297;-63
2022/03/07 07:36:45;;;;;;;21.13;17.43;;;8.30;68.90;;;;;;5031939;28;20241;-64
2022/03/07 07:39:12;;;;;;;7.80;6.10;;;8.30;69.20;;;;;;5031914;28;20230;-63
2022/03/07 07:41:39;;;;;;;9.03;6.53;;;8.40;69.20;;;;;;5031781;28;20217;-64
2022/03/07 07:44:06;;;;;;;7.33;6.27;;;8.10;69.20;;;;;;5031886;28;20593;-62
2022/03/07 07:46:32;;;;;;;7.50;6.67;;;7.80;69.70;;;;;;5032006;28;20210;-63
2022/03/07 07:49:01;;;;;;;6.50;5.80;;;7.30;71.20;;;;;;5031979;28;20288;-63
2022/03/07 07:51:27;;;;;;;6.83;6.00;;;7.00;72.20;;;;;;5031821;28;20256;-64
2022/03/07 07:53:54;;;;;;;8.03;6.80;;;6.40;73.20;;;;;;5031657;28;20214;-64
2022/03/07 07:56:22;;;;;;;8.73;6.50;;;5.60;74.70;;;;;;5031806;28;20626;-64
2022/03/07 07:58:49;;;;;;;8.70;7.07;;;4.80;77.50;;;;;;5031500;28;20241;-64
2022/03/07 08:01:16;;;;;;;8.07;6.70;;;4.10;79.30;;;;;;5031336;28;20210;-66
2022/03/07 08:03:42;;;;;;;9.50;7.60;;;3.50;81.00;;;;;;5031980;28;20217;-65
2022/03/07 08:06:10;;;;;;;9.07;7.47;;;3.10;82.20;;;;;;5029090;28;20495;-64
2022/03/07 08:08:37;;;;;;;8.83;7.43;;;2.80;83.60;;;;;;5030661;28;20226;-64
2022/03/07 08:11:04;;;;;;;10.30;7.47;;;2.70;84.50;;;;;;5031755;28;20662;-64
2022/03/07 08:13:31;;;;;;;10.63;7.10;;;2.70;85.00;;;;;;5031798;28;20210;-64
2022/03/07 08:15:57;;;;;;;9.90;7.13;;;2.70;85.10;;;;;;5031481;28;20217;-63
2022/03/07 08:18:24;;;;;;;8.33;6.67;;;2.70;85.30;;;;;;5031542;28;20575;-63
2022/03/07 08:20:51;;;;;;;10.17;7.50;;;2.70;85.50;;;;;;5031574;28;20210;-65
2022/03/07 08:23:19;;;;;;;9.10;7.23;;;2.70;85.20;;;;;;5031838;28;20301;-64
2022/03/07 08:25:46;;;;;;;8.93;7.27;;;2.70;85.40;;;;;;5031360;28;20210;-66
2022/03/07 08:28:12;;;;;;;11.20;7.53;;;2.70;85.40;;;;;;5031361;28;20269;-66
2022/03/07 08:30:39;;;;;;;10.60;7.60;;;2.60;85.50;;;;;;5031213;28;20260;-64
2022/03/07 08:33:06;;;;;;;10.50;7.30;;;2.60;85.00;;;;;;5031257;28;20206;-64
2022/03/07 08:35:33;;;;;;;8.83;7.37;;;2.60;84.90;;;;;;5031288;28;20210;-65
2022/03/07 08:37:59;;;;;;;9.97;7.80;;;2.50;83.80;;;;;;5031165;28;20226;-73
2022/03/07 08:40:28;;;;;;;9.47;7.10;;;2.50;83.90;;;;;;5031461;28;20299;-63
2022/03/07 08:42:54;;;;;;;10.97;7.27;;;2.40;84.80;;;;;;5031806;28;20210;-64
2022/03/07 08:45:22;;;;;;;10.07;7.37;;;2.50;85.20;;;;;;5031219;28;20283;-65
2022/03/07 08:47:50;;;;;;;10.83;7.00;;;2.60;84.00;;;;;;5031434;28;20209;-65
2022/03/07 08:50:18;;;;;;;7.93;7.13;;;2.70;83.50;;;;;;5031863;28;20227;-63
2022/03/07 08:52:46;;;;;;;11.97;7.90;;;2.80;83.00;;;;;;5031126;28;20585;-66
2022/03/07 08:55:13;;;;;;;10.13;7.80;;;2.90;83.40;;;;;;5031435;28;20264;-64
2022/03/07 08:57:41;;;;;;;9.10;7.40;;;2.90;83.40;;;;;;5031172;28;20214;-65
2022/03/07 09:00:11;;;;;;;16.80;7.93;;;3.00;83.10;;;;;;5031101;28;20285;-64
2022/03/07 09:02:39;;;;;;;8.90;7.10;;;3.10;82.70;;;;;;5031087;28;20262;-64
2022/03/07 09:05:06;;;;;;;10.73;7.53;;;3.20;81.60;;;;;;5032420;28;20209;-64
2022/03/07 09:07:33;;;;;;;11.17;7.33;;;3.40;81.80;;;;;;5034830;28;20583;-65
2022/03/07 09:10:00;;;;;;;10.13;7.80;;;3.50;80.70;;;;;;5034635;28;20233;-64
2022/03/07 09:12:28;;;;;;;8.93;7.00;;;3.60;79.30;;;;;;5034686;28;20260;-64
2022/03/07 09:14:58;;;;;;;9.90;7.73;;;3.80;78.80;;;;;;5034591;28;20635;-64
2022/03/07 09:17:25;;;;;;;10.33;8.23;;;3.90;78.30;;;;;;5034473;28;20306;-64
2022/03/07 09:19:52;;;;;;;12.07;7.73;;;4.10;78.30;;;;;;5034426;28;20295;-65
2022/03/07 09:22:19;;;;;;;10.27;7.77;;;4.20;78.50;;;;;;5034388;28;20210;-64
2022/03/07 09:24:46;;;;;;;9.57;7.30;;;4.20;78.10;;;;;;5034267;28;20206;-65
2022/03/07 09:27:13;;;;;;;9.50;7.13;;;4.20;78.40;;;;;;5034382;28;20202;-65
2022/03/07 09:29:39;;;;;;;8.40;6.80;;;4.20;78.20;;;;;;5034258;28;20716;-65
2022/03/07 09:32:08;;;;;;;10.30;7.33;;;4.20;77.90;;;;;;5034733;28;20260;-64
2022/03/07 09:34:36;;;;;;;7.97;6.73;;;4.30;77.90;;;;;;5034593;28;20202;-64
2022/03/07 09:37:06;;;;;;;8.03;6.87;;;4.30;77.20;;;;;;5034501;28;20212;-65
2022/03/07 09:39:33;;;;;;;9.00;7.40;;;4.30;77.00;;;;;;5034349;28;20317;-65
2022/03/07 09:42:00;;;;;;;9.60;7.30;;;4.40;77.10;;;;;;5034362;28;20210;-64
2022/03/07 09:44:28;;;;;;;7.73;6.30;;;4.60;76.20;;;;;;5034639;28;20221;-65
2022/03/07 09:46:56;;;;;;;8.60;6.80;;;4.50;75.40;;;;;;5034190;28;20202;-65
2022/03/07 09:49:25;;;;;;;8.93;6.87;;;4.50;75.90;;;;;;5034285;28;20250;-64
2022/03/07 09:51:53;;;;;;;10.63;7.10;;;4.70;74.90;;;;;;5034047;28;20305;-65
2022/03/07 09:54:20;;;;;;;8.00;6.73;;;4.90;74.40;;;;;;5034296;28;20206;-65
2022/03/07 09:56:47;;;;;;;7.40;6.70;;;5.30;73.20;;;;;;5034484;28;20206;-63
2022/03/07 09:59:16;;;;;;;9.87;7.03;;;5.60;72.60;;;;;;5034197;28;20242;-57
2022/03/07 10:01:43;;;;;;;8.80;6.70;;;5.70;71.70;;;;;;5034528;28;20206;-63
2022/03/07 10:04:11;;;;;;;7.53;6.53;;;5.60;71.00;;;;;;5034776;28;20233;-64
2022/03/07 10:06:48;;;;;;;8.67;6.40;;;5.60;70.90;;;;;;5035047;28;20558;-64
2022/03/07 10:09:20;;;;;;;8.97;6.80;;;5.50;70.40;;;;;;5034464;28;20613;-62
2022/03/07 10:11:51;;;;;;;9.03;6.50;;;5.50;70.50;;;;;;5034254;28;20210;-63
2022/03/07 10:14:18;;;;;;;7.87;6.43;;;5.50;70.30;;;;;;5034395;28;20230;-62
2022/03/07 10:16:45;;;;;;;7.70;6.90;;;5.70;70.00;;;;;;5033958;28;20210;-62
2022/03/07 10:19:13;;;;;;;7.60;6.63;;;5.90;69.00;;;;;;5034077;28;20238;-63
2022/03/07 10:21:47;;;;;;;8.33;6.70;;;6.10;69.00;;;;;;5034138;28;20214;-63
2022/03/07 10:24:14;;;;;;;10.40;7.60;;;6.10;68.30;;;;;;5034121;28;20215;-63
2022/03/07 10:26:41;;;;;;;10.27;8.93;;;6.00;68.00;;;;;;5033569;28;20210;-63
2022/03/07 10:29:07;;;;;;;7.33;6.60;;;6.00;68.00;;;;;;5033748;28;20218;-65
2022/03/07 10:31:35;;;;;;;7.60;6.30;;;5.90;67.90;;;;;;5034162;28;20218;-64
2022/03/07 10:34:03;;;;;;;6.80;5.97;;;6.10;68.00;;;;;;5033800;28;20313;-63
2022/03/07 10:36:31;;;;;;;9.83;6.80;;;6.00;67.70;;;;;;5033633;28;20206;-64
2022/03/07 10:39:00;;;;;;;8.50;6.80;;;6.00;67.20;;;;;;5033472;28;20272;-62
2022/03/07 10:41:35;;;;;;;6.77;5.93;;;5.90;67.50;;;;;;5033021;28;20634;-63
2022/03/07 10:44:02;;;;;;;9.13;6.80;;;5.70;67.70;;;;;;5032904;28;20209;-65
2022/03/07 10:46:29;;;;;;;7.80;6.77;;;5.70;68.00;;;;;;5032969;28;20612;-63
2022/03/07 10:48:55;;;;;;;7.30;6.23;;;5.80;67.90;;;;;;5032836;28;20313;-65
2022/03/07 10:51:25;;;;;;;9.33;6.73;;;5.90;67.20;;;;;;5032523;28;20214;-63
2022/03/07 10:53:52;;;;;;;8.10;6.90;;;6.00;67.10;;;;;;5033048;28;20340;-62
2022/03/07 10:56:23;;;;;;;8.50;6.10;;;6.10;66.80;;;;;;5032706;28;20852;-61
2022/03/07 10:58:52;;;;;;;8.07;6.63;;;6.20;66.40;;;;;;5032703;28;20234;-59
2022/03/07 11:01:28;;;;;;;8.03;6.53;;;6.30;66.20;;;;;;5032644;28;20221;-57
2022/03/07 11:03:57;;;;;;;8.20;6.63;;;6.40;66.00;;;;;;5032723;28;20276;-56
2022/03/07 11:06:25;;;;;;;7.73;6.70;;;6.60;64.80;;;;;;5032747;28;20256;-57
2022/03/07 11:08:52;;;;;;;10.60;6.93;;;6.80;64.30;;;;;;5032506;28;20280;-57
2022/03/07 11:11:21;;;;;;;9.50;7.20;;;7.10;64.20;;;;;;5032192;28;20206;-57
2022/03/07 11:13:53;;;;;;;7.97;6.67;;;7.30;64.10;;;;;;5032130;28;20213;-57
2022/03/07 11:16:22;;;;;;;8.57;6.73;;;7.30;63.00;;;;;;5032240;28;20241;-56
2022/03/07 11:18:53;;;;;;;8.30;7.07;;;7.10;63.40;;;;;;5032053;28;20317;-56
2022/03/07 11:21:21;;;;;;;8.33;7.27;;;6.90;63.30;;;;;;5032154;28;21212;-56
2022/03/07 11:23:48;;;;;;;7.33;6.43;;;6.70;63.00;;;;;;5032482;28;20297;-56
2022/03/07 11:26:16;;;;;;;9.23;7.10;;;6.30;63.60;;;;;;5033076;28;20305;-57
2022/03/07 11:28:44;;;;;;;7.90;7.10;;;6.00;64.20;;;;;;5031572;28;20264;-59
2022/03/07 11:31:19;;;;;;;8.13;6.90;;;6.00;64.70;;;;;;5031797;28;20675;-58
2022/03/07 11:33:50;;;;;;;8.23;7.03;;;5.90;64.50;;;;;;5032157;28;20256;-59
2022/03/07 11:36:18;;;;;;;7.97;6.70;;;6.00;64.60;;;;;;5032056;28;20577;-55
2022/03/07 11:38:52;;;;;;;8.97;6.70;;;6.10;64.40;;;;;;5032331;28;20272;-57
2022/03/07 11:41:25;;;;;;;7.87;6.87;;;6.30;64.20;;;;;;5032330;28;20210;-59
2022/03/07 11:43:55;;;;;;;8.43;7.37;;;6.10;64.00;;;;;;5032870;28;20661;-59
2022/03/07 11:46:23;;;;;;;9.13;6.60;;;6.30;63.70;;;;;;5031859;28;20217;-58
2022/03/07 11:48:51;;;;;;;7.83;7.00;;;6.40;63.60;;;;;;5032116;28;20602;-58
2022/03/07 11:51:19;;;;;;;9.53;6.70;;;6.40;63.50;;;;;;5031919;28;20632;-57
2022/03/07 11:53:46;;;;;;;8.50;6.80;;;6.50;63.00;;;;;;5032161;28;20206;-57
2022/03/07 11:56:17;;;;;;;7.90;6.83;;;6.40;62.90;;;;;;5032057;28;20210;-57
2022/03/07 11:58:49;;;;;;;8.90;6.80;;;6.30;63.00;;;;;;5055565;23;20632;-57
2022/03/07 12:01:18;;;;;;;7.67;6.80;;;6.40;62.70;;;;;;5031285;28;20243;-58
2022/03/07 12:03:47;;;;;;;7.87;6.67;;;6.40;62.70;;;;;;5012451;28;20219;-58
2022/03/07 12:06:15;;;;;;;8.93;7.13;;;6.50;62.40;;;;;;5012619;28;20237;-58
2022/03/07 12:08:47;;;;;;;8.13;6.87;;;6.60;62.10;;;;;;5012210;28;20623;-57
2022/03/07 12:11:25;;;;;;;9.87;7.20;;;6.50;61.30;;;;;;5012000;28;20671;-58
2022/03/07 12:13:53;;;;;;;8.77;6.50;;;6.60;61.80;;;;;;5012232;28;20265;-57
2022/03/07 12:16:30;;;;;;;7.90;6.87;;;6.80;62.10;;;;;;5012026;28;20211;-58
2022/03/07 12:19:07;;;;;;;7.80;6.83;;;7.00;61.20;;;;;;5012242;28;20335;-58
2022/03/07 12:21:34;;;;;;;9.13;7.33;;;6.90;60.70;;;;;;5011707;28;20657;-58
2022/03/07 12:24:01;;;;;;;8.50;6.73;;;6.90;61.10;;;;;;5011931;28;20210;-58
2022/03/07 12:26:27;;;;;;;8.60;7.57;;;6.90;61.60;;;;;;5012190;28;20203;-56
2022/03/07 12:28:54;;;;;;;7.10;6.40;;;6.70;61.10;;;;;;5012361;28;20615;-61
2022/03/07 12:31:21;;;;;;;8.40;6.67;;;6.50;61.70;;;;;;5012099;28;20207;-58
2022/03/07 12:33:50;;;;;;;7.67;6.87;;;6.50;61.50;;;;;;5012204;28;20206;-58
2022/03/07 12:36:17;;;;;;;8.33;7.30;;;6.60;61.60;;;;;;5011718;28;20269;-57
2022/03/07 12:38:48;;;;;;;7.43;6.63;;;6.80;61.00;;;;;;5012325;28;20206;-58
2022/03/07 12:41:15;;;;;;;8.67;6.80;;;6.90;60.70;;;;;;5015656;28;20203;-57
2022/03/07 12:43:43;;;;;;;9.43;7.20;;;6.90;60.50;;;;;;5015552;28;20563;-57
2022/03/07 12:46:11;;;;;;;8.83;7.70;;;6.80;60.70;;;;;;5015489;28;20693;-57
2022/03/07 12:48:39;;;;;;;7.50;6.70;;;6.90;60.30;;;;;;5015646;28;20203;-57
2022/03/07 12:51:12;;;;;;;7.50;6.60;;;6.90;60.30;;;;;;5015535;28;20209;-58
2022/03/07 12:53:47;;;;;;;11.80;7.40;;;6.80;60.90;;;;;;5015454;28;20207;-60
2022/03/07 12:56:15;;;;;;;8.30;7.40;;;6.90;60.90;;;;;;5015671;28;20230;-61